Alamo, Texas
Current Conditions -  °F | °C
As of 12:53 PM on Friday 21 Nov 2014 (Local Time) from KMFE Reporting Station
Light Rain Light Rain  
Wind Chill: 24°   Ceiling: 900
Heat Index: 24°   Visibility: 8mi
Dew Point: 21°   Wind: 15mph
Humidity: 84%   Direction: 140°SE
Pressure: 30.02"   Gusts: 21mph
Location:  26.18°N, 98.12°W
Report Text: KMFE 211853Z 14013G18KT 8SM -RA BKN009 BKN018 OVC027 24/21 A3002 RMK AO2 SLP164 P0001 T02390211
Loading
Personal Weather Stations






























Interactive Weather Map New forecast layout! Learn more

10-Day Weather Forecast

Advertisements
Track Severe Weather on mobile